Time;durP1;ratioP1;P1;durP2;ratioP2;P2;SDS_P1;SDS_P2;PMS_P1;PMS_P2;Temp;Humidity;BMP_temperature;BMP_pressure;BME280_temperature;BME280_humidity;BME280_pressure;Samples;Min_cycle;Max_cycle;Signal;HPM_P1;HPM_P2
2023/04/16 00:01:16;;;;;;;17.38;10.45;;;;;;;;;;5112081;28;20035;-69
2023/04/16 00:03:42;;;;;;;18.55;11.20;;;;;;;;;;5110984;28;20505;-69
2023/04/16 00:06:11;;;;;;;27.50;11.32;;;;;;;;;;5111860;28;20028;-68
2023/04/16 00:08:37;;;;;;;17.80;10.40;;;;;;;;;;5111892;28;20022;-70
2023/04/16 00:11:03;;;;;;;22.00;10.82;;;;;;;;;;5111591;28;20063;-69
2023/04/16 00:13:29;;;;;;;20.23;10.93;;;;;;;;;;5111725;28;20031;-70
2023/04/16 00:15:55;;;;;;;20.05;11.20;;;;;;;;;;5111955;28;20027;-69
2023/04/16 00:18:21;;;;;;;23.15;11.77;;;;;;;;;;5111616;28;20053;-69
2023/04/16 00:20:48;;;;;;;16.73;9.85;;;;;;;;;;5110232;28;20035;-70
2023/04/16 00:23:14;;;;;;;20.77;10.52;;;;;;;;;;5111730;28;20544;-69
2023/04/16 00:25:41;;;;;;;20.63;10.60;;;;;;;;;;5111641;28;20063;-69
2023/04/16 00:28:07;;;;;;;19.70;10.82;;;;;;;;;;5111805;28;20027;-69
2023/04/16 00:30:34;;;;;;;21.67;11.02;;;;;;;;;;5111657;28;20549;-69
2023/04/16 00:33:00;;;;;;;17.90;10.15;;;;;;;;;;5111354;28;20039;-69
2023/04/16 00:35:26;;;;;;;21.13;10.98;;;;;;;;;;5111642;28;20263;-69
2023/04/16 00:37:52;;;;;;;19.17;10.88;;;;;;;;;;5111401;28;20024;-69
2023/04/16 00:40:18;;;;;;;18.90;10.32;;;;;;;;;;5111452;28;20123;-70
2023/04/16 00:42:45;;;;;;;19.38;10.13;;;;;;;;;;5111520;28;20019;-69
2023/04/16 00:45:11;;;;;;;21.95;10.48;;;;;;;;;;5111219;28;20047;-70
2023/04/16 00:47:38;;;;;;;16.83;9.88;;;;;;;;;;5111401;28;20039;-68
2023/04/16 00:50:04;;;;;;;19.38;10.57;;;;;;;;;;5111496;28;20034;-68
2023/04/16 00:52:34;;;;;;;36.72;11.82;;;;;;;;;;5111401;28;20024;-70
2023/04/16 00:55:00;;;;;;;19.33;10.55;;;;;;;;;;5111479;28;20020;-71
2023/04/16 00:57:26;;;;;;;18.02;10.57;;;;;;;;;;5111320;28;20024;-69
2023/04/16 00:59:53;;;;;;;18.90;11.32;;;;;;;;;;5111243;28;20078;-68
2023/04/16 01:02:19;;;;;;;20.90;11.60;;;;;;;;;;5111214;28;20475;-70
2023/04/16 01:04:45;;;;;;;22.15;11.05;;;;;;;;;;5111550;28;20069;-69
2023/04/16 01:07:11;;;;;;;22.45;10.95;;;;;;;;;;5111121;28;20025;-68
2023/04/16 01:09:37;;;;;;;16.13;10.05;;;;;;;;;;5111207;28;20534;-68
2023/04/16 01:12:04;;;;;;;21.80;10.68;;;;;;;;;;5111206;28;20024;-69
2023/04/16 01:14:34;;;;;;;18.65;9.80;;;;;;;;;;5112214;28;20026;-69
2023/04/16 01:17:01;;;;;;;21.02;10.30;;;;;;;;;;5115328;28;20024;-69
2023/04/16 01:19:28;;;;;;;18.42;10.85;;;;;;;;;;5114868;28;20429;-69
2023/04/16 01:21:54;;;;;;;19.35;10.27;;;;;;;;;;5115181;28;20027;-70
2023/04/16 01:24:20;;;;;;;18.35;10.27;;;;;;;;;;5114820;28;20061;-71
2023/04/16 01:26:46;;;;;;;17.88;10.07;;;;;;;;;;5114944;28;20020;-70
2023/04/16 01:29:12;;;;;;;22.63;10.10;;;;;;;;;;5114698;28;20028;-71
2023/04/16 01:31:38;;;;;;;17.40;9.65;;;;;;;;;;5114704;28;20050;-69
2023/04/16 01:34:04;;;;;;;16.38;9.32;;;;;;;;;;5114678;28;20063;-71
2023/04/16 01:36:30;;;;;;;22.08;10.88;;;;;;;;;;5114734;28;20118;-68
2023/04/16 01:38:57;;;;;;;20.75;9.90;;;;;;;;;;5114519;28;20031;-69
2023/04/16 01:41:23;;;;;;;22.27;10.55;;;;;;;;;;5114704;28;20032;-69
2023/04/16 01:43:49;;;;;;;20.35;9.55;;;;;;;;;;5114309;28;20511;-68
2023/04/16 01:46:18;;;;;;;19.25;9.65;;;;;;;;;;5114390;28;20051;-68
2023/04/16 01:48:44;;;;;;;19.33;9.73;;;;;;;;;;5114435;28;20023;-68
2023/04/16 01:51:10;;;;;;;19.02;9.82;;;;;;;;;;5114395;28;20024;-69
2023/04/16 01:53:36;;;;;;;19.35;10.25;;;;;;;;;;5114279;28;20019;-69
2023/04/16 01:56:02;;;;;;;18.40;9.38;;;;;;;;;;5114346;28;20046;-68
2023/04/16 01:58:29;;;;;;;16.77;9.45;;;;;;;;;;5114087;28;20027;-70
2023/04/16 02:00:55;;;;;;;22.48;9.95;;;;;;;;;;5114338;28;20023;-69
2023/04/16 02:03:23;;;;;;;20.73;10.85;;;;;;;;;;5114264;28;20058;-68
2023/04/16 02:05:49;;;;;;;26.00;12.30;;;;;;;;;;5114020;28;20123;-69
2023/04/16 02:08:16;;;;;;;21.00;10.90;;;;;;;;;;5114223;28;20035;-70
2023/04/16 02:10:42;;;;;;;19.60;10.57;;;;;;;;;;5113969;28;20020;-69
2023/04/16 02:13:08;;;;;;;16.13;10.20;;;;;;;;;;5114209;28;20039;-70
2023/04/16 02:15:34;;;;;;;18.85;9.85;;;;;;;;;;5114016;28;20055;-69
2023/04/16 02:18:00;;;;;;;28.92;11.30;;;;;;;;;;5113999;28;20059;-69
2023/04/16 02:20:26;;;;;;;20.35;10.25;;;;;;;;;;5113931;28;20059;-69
2023/04/16 02:22:52;;;;;;;27.83;12.05;;;;;;;;;;5113869;28;20023;-68
2023/04/16 02:25:18;;;;;;;22.55;11.32;;;;;;;;;;5113592;28;20046;-70
2023/04/16 02:27:44;;;;;;;20.92;11.25;;;;;;;;;;5113051;28;20024;-70
2023/04/16 02:30:11;;;;;;;23.52;12.00;;;;;;;;;;5113582;28;20039;-69
2023/04/16 02:32:37;;;;;;;20.73;12.20;;;;;;;;;;5113434;28;20030;-69
2023/04/16 02:35:03;;;;;;;20.55;11.50;;;;;;;;;;5113764;28;20028;-69
2023/04/16 02:37:29;;;;;;;23.08;11.95;;;;;;;;;;5113578;28;20020;-70
2023/04/16 02:39:56;;;;;;;22.15;12.63;;;;;;;;;;5112847;28;20063;-70
2023/04/16 02:42:22;;;;;;;27.13;13.00;;;;;;;;;;5113598;28;20090;-69
2023/04/16 02:44:48;;;;;;;23.80;12.93;;;;;;;;;;5112186;28;20138;-70
2023/04/16 02:47:14;;;;;;;25.83;13.52;;;;;;;;;;5113255;28;20109;-69
2023/04/16 02:49:40;;;;;;;28.05;14.10;;;;;;;;;;5113220;28;20460;-70
2023/04/16 02:52:06;;;;;;;26.25;13.70;;;;;;;;;;5113440;28;20069;-69
2023/04/16 02:54:32;;;;;;;25.08;13.02;;;;;;;;;;5113148;28;20509;-69
2023/04/16 02:56:58;;;;;;;26.88;13.55;;;;;;;;;;5113216;28;20032;-70
2023/04/16 02:59:25;;;;;;;26.27;13.75;;;;;;;;;;5112869;28;20059;-70
2023/04/16 03:01:51;;;;;;;29.27;15.15;;;;;;;;;;5112952;28;20027;-70
2023/04/16 03:04:17;;;;;;;25.42;14.18;;;;;;;;;;5111671;28;20027;-69
2023/04/16 03:06:43;;;;;;;32.25;15.32;;;;;;;;;;5112864;28;20023;-69
2023/04/16 03:09:09;;;;;;;30.17;14.43;;;;;;;;;;5112687;28;20019;-70
2023/04/16 03:11:35;;;;;;;26.92;14.77;;;;;;;;;;5112811;28;20062;-68
2023/04/16 03:14:01;;;;;;;30.95;14.30;;;;;;;;;;5112661;28;20030;-69
2023/04/16 03:16:27;;;;;;;31.27;15.50;;;;;;;;;;5112550;28;20059;-70
2023/04/16 03:18:53;;;;;;;26.38;14.27;;;;;;;;;;5112515;28;20059;-69
2023/04/16 03:21:19;;;;;;;26.45;14.93;;;;;;;;;;5112579;28;20092;-69
2023/04/16 03:23:45;;;;;;;24.50;13.80;;;;;;;;;;5112456;28;20181;-69
2023/04/16 03:26:11;;;;;;;31.52;14.63;;;;;;;;;;5112578;28;20089;-69
2023/04/16 03:28:37;;;;;;;28.98;14.40;;;;;;;;;;5112169;28;20024;-68
2023/04/16 03:31:03;;;;;;;30.02;15.20;;;;;;;;;;5112468;28;20051;-69
2023/04/16 03:33:29;;;;;;;28.00;14.82;;;;;;;;;;5112340;28;20490;-68
2023/04/16 03:35:56;;;;;;;27.70;15.35;;;;;;;;;;5112244;28;20491;-69
2023/04/16 03:38:23;;;;;;;36.80;15.65;;;;;;;;;;5112112;28;20110;-70
2023/04/16 03:40:49;;;;;;;28.15;14.85;;;;;;;;;;5111968;28;20677;-69
2023/04/16 03:43:15;;;;;;;33.05;15.90;;;;;;;;;;5110957;28;20027;-69
2023/04/16 03:45:45;;;;;;;28.20;15.38;;;;;;;;;;5112037;28;20040;-70
2023/04/16 03:48:11;;;;;;;30.27;15.77;;;;;;;;;;5112120;28;20040;-69
2023/04/16 03:50:37;;;;;;;33.55;16.00;;;;;;;;;;5111930;28;20024;-69
2023/04/16 03:53:03;;;;;;;29.10;15.93;;;;;;;;;;5112197;28;20016;-69
2023/04/16 03:55:29;;;;;;;31.23;16.45;;;;;;;;;;5112068;28;20027;-69
2023/04/16 03:57:56;;;;;;;28.92;15.85;;;;;;;;;;5111990;28;20019;-69
2023/04/16 04:00:22;;;;;;;32.47;16.65;;;;;;;;;;5111792;28;20031;-70
2023/04/16 04:02:48;;;;;;;31.70;15.82;;;;;;;;;;5111775;28;20112;-68
2023/04/16 04:05:14;;;;;;;30.35;16.60;;;;;;;;;;5111761;28;20168;-68
2023/04/16 04:07:40;;;;;;;27.98;16.13;;;;;;;;;;5110530;28;20026;-69
2023/04/16 04:10:07;;;;;;;35.00;15.73;;;;;;;;;;5111899;28;20150;-69
2023/04/16 04:12:33;;;;;;;32.00;16.17;;;;;;;;;;5110505;28;20379;-67
2023/04/16 04:14:59;;;;;;;30.42;16.35;;;;;;;;;;5111795;28;20027;-67
2023/04/16 04:17:25;;;;;;;30.65;16.25;;;;;;;;;;5111720;28;20031;-69
2023/04/16 04:19:52;;;;;;;36.70;17.92;;;;;;;;;;5111452;28;20034;-68
2023/04/16 04:22:18;;;;;;;30.83;16.27;;;;;;;;;;5111900;28;20039;-69
2023/04/16 04:24:44;;;;;;;33.53;17.63;;;;;;;;;;5111907;28;20027;-69
2023/04/16 04:27:10;;;;;;;34.22;18.23;;;;;;;;;;5111855;28;20027;-68
2023/04/16 04:29:36;;;;;;;33.40;17.35;;;;;;;;;;5111476;28;20062;-69
2023/04/16 04:32:02;;;;;;;30.67;17.50;;;;;;;;;;5111613;28;20425;-69
2023/04/16 04:34:28;;;;;;;31.75;17.38;;;;;;;;;;5111538;28;20383;-70
2023/04/16 04:36:55;;;;;;;30.20;17.02;;;;;;;;;;5111606;28;20024;-70
2023/04/16 04:39:21;;;;;;;36.58;16.63;;;;;;;;;;5111769;28;20031;-70
2023/04/16 04:41:47;;;;;;;32.10;17.52;;;;;;;;;;5111470;28;20047;-70
2023/04/16 04:44:14;;;;;;;37.85;18.65;;;;;;;;;;5111498;28;20023;-70
2023/04/16 04:46:40;;;;;;;36.25;18.40;;;;;;;;;;5111339;28;20046;-70
2023/04/16 04:49:06;;;;;;;29.13;17.23;;;;;;;;;;5111741;28;20549;-69
2023/04/16 04:51:32;;;;;;;28.90;14.68;;;;;;;;;;5115375;28;20585;-72
2023/04/16 04:53:58;;;;;;;28.42;16.00;;;;;;;;;;5115425;28;20016;-69
2023/04/16 04:56:25;;;;;;;33.00;16.50;;;;;;;;;;5115528;28;20030;-70
2023/04/16 04:58:51;;;;;;;31.45;17.48;;;;;;;;;;5115353;28;20020;-69
2023/04/16 05:01:17;;;;;;;32.33;18.35;;;;;;;;;;5115177;28;20028;-68
2023/04/16 05:03:43;;;;;;;34.65;17.55;;;;;;;;;;5115141;28;20020;-70
2023/04/16 05:06:09;;;;;;;34.42;18.27;;;;;;;;;;5115300;28;20023;-68
2023/04/16 05:08:35;;;;;;;36.47;18.23;;;;;;;;;;5115142;28;20051;-69
2023/04/16 05:11:01;;;;;;;38.05;18.88;;;;;;;;;;5115037;28;20028;-70
2023/04/16 05:13:27;;;;;;;39.08;18.40;;;;;;;;;;5114927;28;20077;-69
2023/04/16 05:15:54;;;;;;;40.03;17.58;;;;;;;;;;5115061;28;20027;-69
2023/04/16 05:18:20;;;;;;;34.15;15.23;;;;;;;;;;5114920;28;20094;-71
2023/04/16 05:20:46;;;;;;;25.70;14.05;;;;;;;;;;5114833;28;20039;-70
2023/04/16 05:23:14;;;;;;;29.42;16.52;;;;;;;;;;5113782;28;20027;-69
2023/04/16 05:25:40;;;;;;;34.00;17.40;;;;;;;;;;5114892;28;20369;-70
2023/04/16 05:28:06;;;;;;;31.38;16.75;;;;;;;;;;5114898;28;20103;-69
2023/04/16 05:30:32;;;;;;;32.88;16.98;;;;;;;;;;5114816;28;20483;-70
2023/04/16 05:32:58;;;;;;;37.50;17.60;;;;;;;;;;5114444;28;20020;-69
2023/04/16 05:35:25;;;;;;;29.58;16.90;;;;;;;;;;5114758;28;20038;-70
2023/04/16 05:37:51;;;;;;;36.85;18.77;;;;;;;;;;5114573;28;20072;-70
2023/04/16 05:40:17;;;;;;;35.05;18.15;;;;;;;;;;5114583;28;20066;-70
2023/04/16 05:42:43;;;;;;;30.90;17.73;;;;;;;;;;5109898;28;20412;-68
2023/04/16 05:45:09;;;;;;;31.45;17.52;;;;;;;;;;5113207;28;20031;-69
2023/04/16 05:47:35;;;;;;;32.67;18.02;;;;;;;;;;5114623;28;20035;-69
2023/04/16 05:50:01;;;;;;;33.08;17.63;;;;;;;;;;5114431;28;20027;-68
2023/04/16 05:52:28;;;;;;;29.08;17.48;;;;;;;;;;5114432;28;20028;-69
2023/04/16 05:54:54;;;;;;;32.20;15.68;;;;;;;;;;5114369;28;20015;-69
2023/04/16 05:57:20;;;;;;;28.90;16.85;;;;;;;;;;5111625;28;20118;-62
2023/04/16 05:59:46;;;;;;;25.30;14.85;;;;;;;;;;5113365;28;20039;-62
2023/04/16 06:02:12;;;;;;;27.50;16.02;;;;;;;;;;5112291;28;20032;-63
2023/04/16 06:04:38;;;;;;;36.00;18.13;;;;;;;;;;5113873;28;20028;-63
2023/04/16 06:07:04;;;;;;;25.77;13.77;;;;;;;;;;5113797;28;20095;-63
2023/04/16 06:09:30;;;;;;;29.80;14.55;;;;;;;;;;5113890;28;20493;-62
2023/04/16 06:11:56;;;;;;;23.17;11.95;;;;;;;;;;5113913;28;20019;-63
2023/04/16 06:14:22;;;;;;;28.00;12.25;;;;;;;;;;5113319;28;20514;-64
2023/04/16 06:16:49;;;;;;;26.75;14.52;;;;;;;;;;5113992;28;20030;-63
2023/04/16 06:19:15;;;;;;;25.38;15.50;;;;;;;;;;5112385;28;20030;-63
2023/04/16 06:21:41;;;;;;;30.98;15.82;;;;;;;;;;5113738;28;20032;-64
2023/04/16 06:24:07;;;;;;;28.35;15.13;;;;;;;;;;5113730;28;20023;-63
2023/04/16 06:26:33;;;;;;;24.02;14.35;;;;;;;;;;5113308;28;20533;-63
2023/04/16 06:29:00;;;;;;;21.15;12.93;;;;;;;;;;5113284;28;20035;-62
2023/04/16 06:31:26;;;;;;;22.77;13.48;;;;;;;;;;5113518;28;20023;-62
2023/04/16 06:33:52;;;;;;;21.05;13.07;;;;;;;;;;5113589;28;20031;-64
2023/04/16 06:36:18;;;;;;;21.33;12.52;;;;;;;;;;5113224;28;20480;-63
2023/04/16 06:38:44;;;;;;;22.33;12.52;;;;;;;;;;5113259;28;20115;-62
2023/04/16 06:41:10;;;;;;;27.25;12.93;;;;;;;;;;5113192;28;20032;-63
2023/04/16 06:43:36;;;;;;;27.45;11.38;;;;;;;;;;5113496;28;20048;-62
2023/04/16 06:46:02;;;;;;;16.60;10.65;;;;;;;;;;5112876;28;20075;-62
2023/04/16 06:48:28;;;;;;;19.80;10.90;;;;;;;;;;5113170;28;20026;-63
2023/04/16 06:50:55;;;;;;;17.27;10.00;;;;;;;;;;5112878;28;20024;-62
2023/04/16 06:53:21;;;;;;;21.13;10.07;;;;;;;;;;5113266;28;20050;-63
2023/04/16 06:55:47;;;;;;;17.05;9.18;;;;;;;;;;5112989;28;20031;-63
2023/04/16 06:58:13;;;;;;;20.38;8.98;;;;;;;;;;5112873;28;20031;-63
2023/04/16 07:00:39;;;;;;;15.20;8.85;;;;;;;;;;5112876;28;20036;-63
2023/04/16 07:03:05;;;;;;;15.05;7.47;;;;;;;;;;5112863;28;20051;-62
2023/04/16 07:05:31;;;;;;;21.33;9.25;;;;;;;;;;5112784;28;20028;-63
2023/04/16 07:07:58;;;;;;;12.77;8.38;;;;;;;;;;5112810;28;20054;-62
2023/04/16 07:10:24;;;;;;;15.95;7.95;;;;;;;;;;5112547;28;20617;-63
2023/04/16 07:12:50;;;;;;;13.95;8.35;;;;;;;;;;5112158;28;20503;-63
2023/04/16 07:15:17;;;;;;;10.75;7.53;;;;;;;;;;5112544;28;20055;-62
2023/04/16 07:17:43;;;;;;;18.73;8.02;;;;;;;;;;5112695;28;20028;-63
2023/04/16 07:20:09;;;;;;;20.40;9.38;;;;;;;;;;5112274;28;20031;-62
2023/04/16 07:22:35;;;;;;;14.85;7.90;;;;;;;;;;5112386;28;20039;-63
2023/04/16 07:25:01;;;;;;;10.85;7.13;;;;;;;;;;5112318;28;20339;-68
2023/04/16 07:27:27;;;;;;;15.13;7.10;;;;;;;;;;5111091;28;20019;-70
2023/04/16 07:29:54;;;;;;;12.85;6.45;;;;;;;;;;5110838;28;20035;-69
2023/04/16 07:32:21;;;;;;;12.40;6.53;;;;;;;;;;5112577;28;20034;-67
2023/04/16 07:34:47;;;;;;;12.77;6.80;;;;;;;;;;5112232;28;20483;-67
2023/04/16 07:37:13;;;;;;;14.55;8.07;;;;;;;;;;5112033;28;20019;-68
2023/04/16 07:39:39;;;;;;;10.70;7.78;;;;;;;;;;5111759;28;20035;-66
2023/04/16 07:42:05;;;;;;;12.73;7.20;;;;;;;;;;5112048;28;20027;-68
2023/04/16 07:44:31;;;;;;;12.68;7.07;;;;;;;;;;5111983;28;20024;-68
2023/04/16 07:46:57;;;;;;;16.52;7.50;;;;;;;;;;5110525;28;20040;-69
2023/04/16 07:49:24;;;;;;;14.13;7.82;;;;;;;;;;5111988;28;20395;-66
2023/04/16 07:51:51;;;;;;;15.48;8.35;;;;;;;;;;5112096;28;20044;-65
2023/04/16 07:54:17;;;;;;;11.52;7.63;;;;;;;;;;5111885;28;20107;-66
2023/04/16 07:56:43;;;;;;;13.98;7.78;;;;;;;;;;5111393;28;20037;-67
2023/04/16 07:59:09;;;;;;;14.80;8.05;;;;;;;;;;5111765;28;20024;-67
2023/04/16 08:01:35;;;;;;;17.55;8.00;;;;;;;;;;5111726;28;20115;-67
2023/04/16 08:04:01;;;;;;;15.48;8.20;;;;;;;;;;5111953;28;20024;-67
2023/04/16 08:06:27;;;;;;;14.57;8.20;;;;;;;;;;5111426;28;20110;-68
2023/04/16 08:08:53;;;;;;;13.27;7.07;;;;;;;;;;5111577;28;20481;-69
2023/04/16 08:11:19;;;;;;;10.40;5.82;;;;;;;;;;5111444;28;20039;-67
2023/04/16 08:13:45;;;;;;;10.57;5.88;;;;;;;;;;5111929;28;20077;-65
2023/04/16 08:16:11;;;;;;;13.77;6.60;;;;;;;;;;5111502;28;20035;-68
2023/04/16 08:18:37;;;;;;;14.00;6.53;;;;;;;;;;5111447;28;20048;-68
2023/04/16 08:21:04;;;;;;;9.68;5.82;;;;;;;;;;5111489;28;20190;-67
2023/04/16 08:23:30;;;;;;;8.85;5.28;;;;;;;;;;5111094;28;20020;-67
2023/04/16 08:25:56;;;;;;;14.63;6.28;;;;;;;;;;5110914;28;20032;-68
2023/04/16 08:28:22;;;;;;;8.60;5.25;;;;;;;;;;5111527;28;20042;-68
2023/04/16 08:30:48;;;;;;;7.93;4.20;;;;;;;;;;5111227;28;20419;-68
2023/04/16 08:33:14;;;;;;;8.95;4.82;;;;;;;;;;5111557;28;20032;-67
2023/04/16 08:35:40;;;;;;;8.75;4.60;;;;;;;;;;5111043;28;20024;-67
2023/04/16 08:38:06;;;;;;;8.73;4.43;;;;;;;;;;5111332;28;20464;-66
2023/04/16 08:40:34;;;;;;;10.82;4.95;;;;;;;;;;5111230;28;20036;-69
2023/04/16 08:43:02;;;;;;;6.72;4.63;;;;;;;;;;5110993;28;20023;-66
2023/04/16 08:45:28;;;;;;;9.50;5.13;;;;;;;;;;5109458;28;20071;-68
2023/04/16 08:47:55;;;;;;;13.63;5.22;;;;;;;;;;5099013;28;20024;-67
2023/04/16 08:50:24;;;;;;;10.55;4.55;;;;;;;;;;5090448;28;20036;-66
2023/04/16 08:52:52;;;;;;;8.05;5.22;;;;;;;;;;5090551;28;20016;-67
2023/04/16 08:55:38;;;;;;;14.40;5.13;;;;;;;;;;5089188;28;20028;-66
2023/04/16 08:58:13;;;;;;;8.40;4.80;;;;;;;;;;5090196;28;20032;-67
2023/04/16 09:00:40;;;;;;;9.07;4.57;;;;;;;;;;5090942;28;20047;-67
2023/04/16 09:03:06;;;;;;;9.00;4.22;;;;;;;;;;5090838;28;20499;-68
2023/04/16 09:05:33;;;;;;;12.55;4.45;;;;;;;;;;5090850;28;20049;-66
2023/04/16 09:07:59;;;;;;;12.02;4.80;;;;;;;;;;5089555;28;20484;-66
2023/04/16 09:10:25;;;;;;;10.10;4.53;;;;;;;;;;5088883;28;20063;-67
2023/04/16 09:12:52;;;;;;;10.93;4.88;;;;;;;;;;5089266;28;20177;-67
2023/04/16 09:15:20;;;;;;;9.60;4.45;;;;;;;;;;5088968;28;20032;-69
2023/04/16 09:17:46;;;;;;;10.00;4.25;;;;;;;;;;5088980;28;20024;-66
2023/04/16 09:20:12;;;;;;;8.50;4.00;;;;;;;;;;5089119;28;20380;-66
2023/04/16 09:22:39;;;;;;;11.90;4.22;;;;;;;;;;5090175;28;20423;-66
2023/04/16 09:25:05;;;;;;;5.50;3.92;;;;;;;;;;5090870;28;20054;-67
2023/04/16 09:27:32;;;;;;;6.80;3.95;;;;;;;;;;5090742;28;20027;-68
2023/04/16 09:29:58;;;;;;;5.78;3.95;;;;;;;;;;5090584;28;20020;-67
2023/04/16 09:32:26;;;;;;;10.32;3.78;;;;;;;;;;5090563;28;20480;-67
2023/04/16 09:34:59;;;;;;;10.00;3.90;;;;;;;;;;5090524;28;20027;-67
2023/04/16 09:37:28;;;;;;;18.80;5.72;;;;;;;;;;5094324;28;20031;-67
2023/04/16 09:39:59;;;;;;;9.07;3.53;;;;;;;;;;5094321;28;20043;-67
2023/04/16 09:42:26;;;;;;;10.63;5.15;;;;;;;;;;5094194;28;20012;-66
2023/04/16 09:44:53;;;;;;;12.10;5.10;;;;;;;;;;5094068;28;20075;-67
2023/04/16 09:47:19;;;;;;;8.68;4.65;;;;;;;;;;5093991;28;20449;-67
2023/04/16 09:49:48;;;;;;;13.85;5.82;;;;;;;;;;5093983;28;20028;-67
2023/04/16 09:52:16;;;;;;;12.52;5.72;;;;;;;;;;5093874;28;20020;-66
2023/04/16 09:54:48;;;;;;;8.38;4.60;;;;;;;;;;5093925;28;20066;-65
2023/04/16 09:57:15;;;;;;;12.40;5.63;;;;;;;;;;5093829;28;20022;-66
2023/04/16 09:59:41;;;;;;;8.20;4.60;;;;;;;;;;5093895;28;20032;-67
2023/04/16 10:02:08;;;;;;;9.80;4.47;;;;;;;;;;5092740;28;20020;-67
2023/04/16 10:04:45;;;;;;;7.05;4.45;;;;;;;;;;5093861;28;20082;-66
2023/04/16 10:07:12;;;;;;;11.15;4.53;;;;;;;;;;5092421;28;20027;-66
2023/04/16 10:09:38;;;;;;;7.20;3.92;;;;;;;;;;5093316;28;20468;-66
2023/04/16 10:12:05;;;;;;;9.07;4.18;;;;;;;;;;5092003;28;20081;-66
2023/04/16 10:14:32;;;;;;;11.18;4.57;;;;;;;;;;5093793;28;20394;-67
2023/04/16 10:16:59;;;;;;;8.43;4.53;;;;;;;;;;5093533;28;20016;-68
2023/04/16 10:19:25;;;;;;;8.93;5.70;;;;;;;;;;5093407;28;20039;-67
2023/04/16 10:21:52;;;;;;;9.90;4.25;;;;;;;;;;5093813;28;20032;-66
2023/04/16 10:24:18;;;;;;;7.60;5.07;;;;;;;;;;5092159;28;20123;-68
2023/04/16 10:26:44;;;;;;;11.73;6.15;;;;;;;;;;5092983;28;20049;-68
2023/04/16 10:29:13;;;;;;;6.93;5.15;;;;;;;;;;5093321;28;20431;-67
2023/04/16 10:31:40;;;;;;;12.68;6.85;;;;;;;;;;5093415;28;20027;-68
2023/04/16 10:34:08;;;;;;;8.90;5.15;;;;;;;;;;5093073;28;20026;-68
2023/04/16 10:36:37;;;;;;;9.77;5.68;;;;;;;;;;5093238;28;20058;-68
2023/04/16 10:39:03;;;;;;;12.32;6.10;;;;;;;;;;5091537;28;20455;-67
2023/04/16 10:41:32;;;;;;;10.57;5.93;;;;;;;;;;5092951;28;20020;-68
2023/04/16 10:44:10;;;;;;;12.40;5.28;;;;;;;;;;5093246;28;20020;-67
2023/04/16 10:46:39;;;;;;;10.55;4.57;;;;;;;;;;5092218;28;20064;-67
2023/04/16 10:49:18;;;;;;;12.10;5.20;;;;;;;;;;5092670;28;20012;-65
2023/04/16 10:51:55;;;;;;;11.02;4.50;;;;;;;;;;5092825;28;20496;-67
2023/04/16 10:54:23;;;;;;;8.02;4.13;;;;;;;;;;5092905;28;20028;-67
2023/04/16 10:56:50;;;;;;;8.82;4.30;;;;;;;;;;5092719;28;20024;-68
2023/04/16 10:59:23;;;;;;;7.85;4.20;;;;;;;;;;5092505;28;20024;-66
2023/04/16 11:01:54;;;;;;;14.30;5.55;;;;;;;;;;5092561;28;20027;-67
2023/04/16 11:04:20;;;;;;;9.48;4.68;;;;;;;;;;5092640;28;20103;-68
2023/04/16 11:07:05;;;;;;;10.32;4.90;;;;;;;;;;5092451;28;20108;-68
2023/04/16 11:09:49;;;;;;;8.38;5.13;;;;;;;;;;5092348;28;20028;-67
2023/04/16 11:12:21;;;;;;;13.00;5.63;;;;;;;;;;5092361;28;20031;-65
2023/04/16 11:15:05;;;;;;;11.25;6.00;;;;;;;;;;5092697;28;20031;-67
2023/04/16 11:17:52;;;;;;;12.38;5.97;;;;;;;;;;5092363;28;20025;-69
2023/04/16 11:20:19;;;;;;;9.25;4.75;;;;;;;;;;5092149;28;20480;-67
2023/04/16 11:22:45;;;;;;;12.15;5.35;;;;;;;;;;5092245;28;20016;-68
2023/04/16 11:25:11;;;;;;;8.73;4.10;;;;;;;;;;5092536;28;20028;-67
2023/04/16 11:27:37;;;;;;;8.05;4.97;;;;;;;;;;5092217;28;20065;-69
2023/04/16 11:30:06;;;;;;;9.23;5.25;;;;;;;;;;5090706;28;20178;-68
2023/04/16 11:32:32;;;;;;;11.45;4.85;;;;;;;;;;5092504;28;20202;-69
2023/04/16 11:35:02;;;;;;;10.63;4.85;;;;;;;;;;5091917;28;20103;-69
2023/04/16 11:37:34;;;;;;;10.73;5.70;;;;;;;;;;5090777;28;20499;-69
2023/04/16 11:40:00;;;;;;;13.05;7.30;;;;;;;;;;5091651;28;20035;-69
2023/04/16 11:42:27;;;;;;;12.60;5.07;;;;;;;;;;5091671;28;20022;-67
2023/04/16 11:44:57;;;;;;;15.20;6.22;;;;;;;;;;5091887;28;20117;-69
2023/04/16 11:47:23;;;;;;;10.13;5.15;;;;;;;;;;5091564;28;20122;-66
2023/04/16 11:49:50;;;;;;;9.52;4.40;;;;;;;;;;5091784;28;20115;-66
2023/04/16 11:52:26;;;;;;;11.98;4.78;;;;;;;;;;5091725;28;20095;-68
2023/04/16 11:54:52;;;;;;;8.88;4.78;;;;;;;;;;5090370;28;20099;-67
2023/04/16 11:57:24;;;;;;;9.15;4.82;;;;;;;;;;5091910;28;20016;-66
2023/04/16 11:59:50;;;;;;;11.07;4.35;;;;;;;;;;5091493;28;20090;-68
2023/04/16 12:02:16;;;;;;;11.25;4.38;;;;;;;;;;5091571;28;20024;-68
2023/04/16 12:04:42;;;;;;;9.07;4.43;;;;;;;;;;5091791;28;20027;-65
2023/04/16 12:07:10;;;;;;;10.45;4.70;;;;;;;;;;5091820;28;20103;-66
2023/04/16 12:09:36;;;;;;;7.07;4.40;;;;;;;;;;5090000;28;20035;-66
2023/04/16 12:12:03;;;;;;;8.75;5.18;;;;;;;;;;5091319;28;20031;-66
2023/04/16 12:14:30;;;;;;;8.30;4.55;;;;;;;;;;5091439;28;20019;-66
2023/04/16 12:16:56;;;;;;;11.98;4.82;;;;;;;;;;5091328;28;20086;-66
2023/04/16 12:19:23;;;;;;;13.60;5.70;;;;;;;;;;5091234;28;20020;-67
2023/04/16 12:21:50;;;;;;;14.00;5.50;;;;;;;;;;5091001;28;20542;-66
2023/04/16 12:24:21;;;;;;;12.95;6.10;;;;;;;;;;5090775;28;20052;-65
2023/04/16 12:26:51;;;;;;;11.35;5.47;;;;;;;;;;5091322;28;20028;-66
2023/04/16 12:29:18;;;;;;;10.93;4.68;;;;;;;;;;5091163;28;20044;-67
2023/04/16 12:31:45;;;;;;;9.05;4.53;;;;;;;;;;5091195;28;20035;-67
2023/04/16 12:34:11;;;;;;;11.43;3.92;;;;;;;;;;5091299;28;20028;-65
2023/04/16 12:36:37;;;;;;;9.88;5.60;;;;;;;;;;5091217;28;20028;-66
2023/04/16 12:39:04;;;;;;;13.75;5.20;;;;;;;;;;5090997;28;20031;-67
2023/04/16 12:41:30;;;;;;;10.38;5.18;;;;;;;;;;5091122;28;20447;-66
2023/04/16 12:44:10;;;;;;;11.98;5.57;;;;;;;;;;5091031;28;20027;-67
2023/04/16 12:46:37;;;;;;;11.43;5.15;;;;;;;;;;5090815;28;20056;-66
2023/04/16 12:49:03;;;;;;;10.52;5.40;;;;;;;;;;5090942;28;20028;-65
2023/04/16 12:51:29;;;;;;;12.30;4.97;;;;;;;;;;5091011;28;20388;-66
2023/04/16 12:53:55;;;;;;;9.77;4.53;;;;;;;;;;5090899;28;20102;-66
2023/04/16 12:56:21;;;;;;;11.80;6.35;;;;;;;;;;5090817;28;20027;-66
2023/04/16 12:58:50;;;;;;;11.82;7.43;;;;;;;;;;5090556;28;20094;-66
2023/04/16 13:01:16;;;;;;;10.38;6.35;;;;;;;;;;5091015;28;20036;-69
2023/04/16 13:03:42;;;;;;;9.45;6.53;;;;;;;;;;5091009;28;20024;-65
2023/04/16 13:06:08;;;;;;;14.45;6.93;;;;;;;;;;5090910;28;20107;-66
2023/04/16 13:08:35;;;;;;;7.07;4.20;;;;;;;;;;5090714;28;20027;-66
2023/04/16 13:11:01;;;;;;;12.27;5.68;;;;;;;;;;5092457;28;20077;-67
2023/04/16 13:13:27;;;;;;;13.77;5.18;;;;;;;;;;5094636;28;20499;-65
2023/04/16 13:15:53;;;;;;;9.20;4.75;;;;;;;;;;5094364;28;20024;-66
2023/04/16 13:18:19;;;;;;;12.07;4.95;;;;;;;;;;5094367;28;20020;-66
2023/04/16 13:20:45;;;;;;;11.65;6.13;;;;;;;;;;5092862;28;20570;-67
2023/04/16 13:23:11;;;;;;;10.82;4.97;;;;;;;;;;5094497;28;20020;-66
2023/04/16 13:25:37;;;;;;;8.15;4.18;;;;;;;;;;5094374;28;20035;-66
2023/04/16 13:28:03;;;;;;;8.48;4.70;;;;;;;;;;5094615;28;20013;-69
2023/04/16 13:30:30;;;;;;;8.63;4.82;;;;;;;;;;5094612;28;20035;-69
2023/04/16 13:32:56;;;;;;;8.18;4.28;;;;;;;;;;5094123;28;20484;-68
2023/04/16 13:35:23;;;;;;;7.70;4.75;;;;;;;;;;5094610;28;20028;-67
2023/04/16 13:37:49;;;;;;;9.00;4.15;;;;;;;;;;5092789;28;20534;-68
2023/04/16 13:40:15;;;;;;;12.52;6.53;;;;;;;;;;5094053;28;20081;-68
2023/04/16 13:42:41;;;;;;;12.95;7.03;;;;;;;;;;5094219;28;20044;-68
2023/04/16 13:45:08;;;;;;;13.60;4.85;;;;;;;;;;5094124;28;20109;-67
2023/04/16 13:47:35;;;;;;;11.18;4.85;;;;;;;;;;5094338;28;20032;-68
2023/04/16 13:50:01;;;;;;;12.65;4.68;;;;;;;;;;5092584;28;20024;-67
2023/04/16 13:52:27;;;;;;;11.65;6.15;;;;;;;;;;5094028;28;20038;-67
2023/04/16 13:54:53;;;;;;;10.77;5.35;;;;;;;;;;5093717;28;20024;-67
2023/04/16 13:57:19;;;;;;;9.77;4.85;;;;;;;;;;5093471;28;20024;-68
2023/04/16 13:59:45;;;;;;;7.60;4.93;;;;;;;;;;5093909;28;20077;-68
2023/04/16 14:02:12;;;;;;;11.65;5.20;;;;;;;;;;5093741;28;20028;-67
2023/04/16 14:04:38;;;;;;;11.05;4.97;;;;;;;;;;5093820;28;20031;-68
2023/04/16 14:07:04;;;;;;;12.93;7.80;;;;;;;;;;5093716;28;20020;-67
2023/04/16 14:09:30;;;;;;;10.27;6.55;;;;;;;;;;5093566;28;20020;-68
2023/04/16 14:11:56;;;;;;;13.48;4.82;;;;;;;;;;5093419;28;20032;-67
2023/04/16 14:14:23;;;;;;;9.25;4.72;;;;;;;;;;5093536;28;20020;-68
2023/04/16 14:16:49;;;;;;;7.43;5.13;;;;;;;;;;5093530;28;20023;-67
2023/04/16 14:19:15;;;;;;;6.28;4.88;;;;;;;;;;5093619;28;20168;-68
2023/04/16 14:21:41;;;;;;;10.32;5.50;;;;;;;;;;5092520;28;20115;-67
2023/04/16 14:24:08;;;;;;;8.45;5.07;;;;;;;;;;5093179;28;20020;-67